Aviation Digital Data Service (ADDS)

Output produced by METARs form (2315 UTC 23 March 2019)
found at http://www.aviationweather.gov/metar/data/
 
Forecast for: FZAA (KINSHASA/N'DJILI, CD)
Text: TAF FZAA 231700Z 2318/2424 27012KT 4000TSRA SCT014 FEW028CB
Forecast period: 1800 UTC 23 March 2019 to 0600 UTC 24 March 2019
Forecast type: FROM: standard forecast or significant change
Winds: from the W (270 degrees) at 14 MPH (12 knots; 6.2 m/s)
Visibility: missing
Ceiling: at least 12,000 feet AGL
Clouds: scattered clouds at 1400 feet AGL
few clouds at 2800 feet AGL
Weather: TSRA  (rain associated with thunderstorm(s))
Text: BECMG 2406/2408 20004KT 8000 NSW BKN016
Forecast period: 0600 to 1100 UTC 24 March 2019
Forecast type: BECOMING: Conditions expected to become as follows by 0800 UTC 24 March 2019
Winds: from the SSW (200 degrees) at 5 MPH (4 knots; 2.1 m/s)
Visibility: 5 miles (8 km)
Ceiling: 1600 feet AGL
Clouds: broken clouds at 1600 feet AGL
Weather: NSW  (no significant weather)
Text: BECMG 2411/2413 32010KT SCT024 FEW030CB
Forecast period: 1100 UTC 24 March 2019 to 0000 UTC 25 March 2019
Forecast type: BECOMING: Conditions expected to become as follows by 1300 UTC 24 March 2019
Winds: from the NW (320 degrees) at 12 MPH (10 knots; 5.1 m/s)
Visibility: 5 miles (8 km)
Ceiling: at least 12,000 feet AGL
Clouds: scattered clouds at 2400 feet AGL
few clouds at 3000 feet AGL
Weather: NSW  (no significant weather)